createdAt,value
2018-03-14T00:00:49.278Z,69.90
2018-03-14T00:03:17.584Z,70.40
2018-03-14T00:05:45.840Z,69.50
2018-03-14T00:08:14.037Z,69.60
2018-03-14T00:10:42.320Z,69.80
2018-03-14T00:13:10.602Z,69.90
2018-03-14T00:15:38.834Z,70.10
2018-03-14T00:18:07.077Z,69.70
2018-03-14T00:20:35.305Z,70.30
2018-03-14T00:23:04.286Z,69.70
2018-03-14T00:25:32.527Z,69.70
2018-03-14T00:28:00.765Z,69.50
2018-03-14T00:30:28.997Z,69.50
2018-03-14T00:32:57.215Z,69.50
2018-03-14T00:35:26.213Z,69.20
2018-03-14T00:37:54.495Z,69.10
2018-03-14T00:40:22.709Z,69.00
2018-03-14T00:42:50.991Z,69.40
2018-03-14T00:45:19.205Z,69.40
2018-03-14T00:47:48.306Z,68.80
2018-03-14T00:50:17.290Z,68.70
2018-03-14T00:52:46.295Z,68.50
2018-03-14T00:55:15.276Z,68.30
2018-03-14T00:57:44.296Z,68.20
2018-03-14T01:00:12.542Z,68.10
2018-03-14T01:02:41.551Z,67.90
2018-03-14T01:05:09.790Z,67.90
2018-03-14T01:07:38.022Z,68.00
2018-03-14T01:10:06.245Z,68.10
2018-03-14T01:12:35.988Z,68.00
2018-03-14T01:15:04.276Z,68.00
2018-03-14T01:17:32.518Z,68.10
2018-03-14T01:20:01.554Z,69.00
2018-03-14T01:22:30.501Z,68.40
2018-03-14T01:24:58.737Z,68.00
2018-03-14T01:27:26.989Z,67.90
2018-03-14T01:29:55.257Z,67.90
2018-03-14T01:32:23.551Z,68.10
2018-03-14T01:34:51.816Z,68.70
2018-03-14T01:37:20.023Z,67.80
2018-03-14T01:39:48.370Z,67.80
2018-03-14T01:42:16.657Z,68.00
2018-03-14T01:44:44.902Z,67.90
2018-03-14T01:47:13.135Z,67.40
2018-03-14T01:49:41.361Z,67.30
2018-03-14T01:52:10.460Z,67.40
2018-03-14T01:54:38.684Z,67.40
2018-03-14T01:57:06.916Z,67.40
2018-03-14T01:59:35.152Z,67.40
2018-03-14T02:02:03.406Z,67.70
2018-03-14T02:04:31.640Z,67.70
2018-03-14T02:07:00.641Z,66.80
2018-03-14T02:09:28.898Z,66.60
2018-03-14T02:11:57.918Z,68.10
2018-03-14T02:14:26.149Z,68.00
2018-03-14T02:16:55.902Z,68.10
2018-03-14T02:19:24.162Z,68.00
2018-03-14T02:21:53.153Z,68.00
2018-03-14T02:24:22.171Z,68.60
2018-03-14T02:26:50.377Z,67.70
2018-03-14T02:29:18.727Z,67.80
2018-03-14T02:31:46.990Z,67.50
2018-03-14T02:34:15.270Z,67.60
2018-03-14T02:36:55.455Z,67.40
2018-03-14T02:39:23.702Z,68.40
2018-03-14T02:41:51.918Z,67.60
2018-03-14T02:44:20.262Z,67.30
2018-03-14T02:46:48.485Z,67.30
2018-03-14T02:49:16.711Z,67.30
2018-03-14T02:51:44.947Z,67.40
2018-03-14T02:54:13.164Z,67.80
2018-03-14T02:56:42.142Z,67.50
2018-03-14T02:59:11.146Z,67.40
2018-03-14T03:01:39.364Z,67.30
2018-03-14T03:04:07.585Z,67.30
2018-03-14T03:06:36.606Z,67.70
2018-03-14T03:09:04.813Z,67.60
2018-03-14T03:11:33.239Z,67.40
2018-03-14T03:14:01.494Z,67.30
2018-03-14T03:16:29.693Z,67.50
2018-03-14T03:18:57.939Z,67.20
2018-03-14T03:21:26.990Z,67.20
2018-03-14T03:23:55.220Z,67.80
2018-03-14T03:26:24.265Z,67.70
2018-03-14T03:28:52.484Z,67.60
2018-03-14T03:31:21.503Z,68.70
2018-03-14T03:33:50.485Z,68.00
2018-03-14T03:36:19.487Z,67.90
2018-03-14T03:38:48.484Z,67.90
2018-03-14T03:41:16.759Z,67.80
2018-03-14T03:43:45.752Z,67.90
2018-03-14T03:46:13.957Z,67.90
2018-03-14T03:48:42.180Z,67.90
2018-03-14T03:51:11.193Z,68.40
2018-03-14T03:53:40.209Z,67.60
2018-03-14T03:56:08.430Z,67.40
2018-03-14T03:58:36.653Z,67.50
2018-03-14T04:01:04.874Z,67.60
2018-03-14T04:03:33.103Z,67.30
2018-03-14T04:06:01.364Z,67.00
2018-03-14T04:08:30.365Z,67.00
2018-03-14T04:10:59.329Z,67.30
2018-03-14T04:13:27.633Z,67.30
2018-03-14T04:15:55.844Z,67.40
2018-03-14T04:18:24.081Z,67.30
2018-03-14T04:20:53.049Z,67.40
2018-03-14T04:23:21.332Z,67.40
2018-03-14T04:25:49.523Z,67.00
2018-03-14T04:28:18.502Z,66.90
2018-03-14T04:30:47.521Z,67.30
2018-03-14T04:33:15.766Z,66.70
2018-03-14T04:35:43.958Z,67.30
2018-03-14T04:38:12.961Z,67.60
2018-03-14T04:40:41.957Z,67.60
2018-03-14T04:43:10.951Z,67.60
2018-03-14T04:45:39.194Z,67.60
2018-03-14T04:48:07.405Z,67.70
2018-03-14T04:50:35.623Z,67.90
2018-03-14T04:53:03.854Z,67.70
2018-03-14T04:55:32.073Z,67.70
2018-03-14T04:58:00.325Z,67.80
2018-03-14T05:00:28.558Z,67.90
2018-03-14T05:02:56.775Z,67.70
2018-03-14T05:05:25.027Z,67.70
2018-03-14T05:07:54.018Z,67.80
2018-03-14T05:10:22.254Z,67.70
2018-03-14T05:12:50.477Z,67.60
2018-03-14T05:15:18.697Z,67.60
2018-03-14T05:17:46.944Z,67.20
2018-03-14T05:20:15.159Z,67.30
2018-03-14T05:22:43.374Z,67.40
2018-03-14T05:25:12.366Z,67.80
2018-03-14T05:27:41.336Z,67.60
2018-03-14T05:30:09.555Z,67.60
2018-03-14T05:32:37.765Z,67.20
2018-03-14T05:35:06.017Z,67.40
2018-03-14T05:37:34.226Z,67.90
2018-03-14T05:40:02.444Z,68.40
2018-03-14T05:42:30.671Z,68.30
2018-03-14T05:44:59.002Z,68.00
2018-03-14T05:47:27.203Z,68.20
2018-03-14T05:49:55.419Z,67.80
2018-03-14T05:52:23.650Z,68.00
2018-03-14T05:54:51.879Z,68.20
2018-03-14T05:57:20.897Z,68.60
2018-03-14T05:59:49.118Z,68.60
2018-03-14T06:02:17.341Z,68.00
2018-03-14T06:04:45.627Z,68.40
2018-03-14T06:07:13.829Z,68.60
2018-03-14T06:09:42.067Z,68.40
2018-03-14T06:12:10.275Z,68.30
2018-03-14T06:14:38.516Z,68.10
2018-03-14T06:17:07.542Z,68.40
2018-03-14T06:19:35.749Z,68.40
2018-03-14T06:22:03.965Z,68.20
2018-03-14T06:24:32.241Z,67.90
2018-03-14T06:27:01.235Z,67.90
2018-03-14T06:29:29.462Z,67.90
2018-03-14T06:31:57.696Z,68.10
2018-03-14T06:34:25.920Z,67.80
2018-03-14T06:36:54.233Z,67.80
2018-03-14T06:39:22.462Z,67.80
2018-03-14T06:41:50.691Z,68.70
2018-03-14T06:44:18.940Z,68.60
2018-03-14T06:46:47.178Z,68.40
2018-03-14T06:49:15.417Z,68.10
2018-03-14T06:51:44.393Z,67.20
2018-03-14T06:54:13.392Z,67.70
2018-03-14T06:56:42.529Z,67.70
2018-03-14T06:59:22.721Z,68.30
2018-03-14T07:02:02.801Z,68.10
2018-03-14T07:07:33.581Z,67.90
2018-03-14T07:10:01.818Z,67.70
2018-03-14T07:12:30.022Z,67.60
2018-03-14T07:14:58.252Z,67.30
2018-03-14T07:17:26.575Z,67.40
2018-03-14T07:19:54.746Z,67.30
2018-03-14T07:22:22.973Z,67.40
2018-03-14T07:24:51.294Z,67.90
2018-03-14T07:27:20.295Z,68.50
2018-03-14T07:29:48.502Z,68.40
2018-03-14T07:32:16.855Z,68.40
2018-03-14T07:34:45.081Z,68.70
2018-03-14T07:37:13.316Z,68.10
2018-03-14T07:39:41.550Z,67.90
2018-03-14T07:42:10.576Z,69.10
2018-03-14T07:44:38.871Z,68.30
2018-03-14T07:47:07.933Z,68.40
2018-03-14T07:49:36.953Z,68.10
2018-03-14T07:52:05.193Z,68.10
2018-03-14T07:54:34.191Z,68.70
2018-03-14T07:57:03.196Z,68.60
2018-03-14T07:59:31.480Z,68.50
2018-03-14T08:01:59.752Z,69.40
2018-03-14T08:04:28.023Z,68.80
2018-03-14T08:06:57.037Z,68.90
2018-03-14T08:09:25.253Z,68.80
2018-03-14T08:11:53.517Z,68.80
2018-03-14T08:14:21.744Z,68.60
2018-03-14T08:16:50.717Z,69.00
2018-03-14T08:19:19.737Z,69.80
2018-03-14T08:21:47.996Z,69.00
2018-03-14T08:24:16.181Z,69.10
2018-03-14T08:26:44.470Z,68.80
2018-03-14T08:29:12.681Z,69.40
2018-03-14T08:31:40.925Z,69.50
2018-03-14T08:34:09.179Z,69.30
2018-03-14T08:36:38.183Z,69.70
2018-03-14T08:39:06.405Z,69.70
2018-03-14T08:41:34.648Z,70.00
2018-03-14T08:44:02.865Z,70.20
2018-03-14T08:46:31.120Z,70.10
2018-03-14T08:48:59.357Z,70.50
2018-03-14T08:51:27.613Z,69.40
2018-03-14T08:53:56.615Z,70.20
2018-03-14T08:56:25.637Z,70.00
2018-03-14T08:58:53.878Z,70.00
2018-03-14T09:01:23.000Z,69.70
2018-03-14T09:03:51.333Z,69.60
2018-03-14T09:06:19.562Z,69.90
2018-03-14T09:08:47.804Z,69.50
2018-03-14T09:11:16.121Z,69.10
2018-03-14T09:13:44.404Z,69.50
2018-03-14T09:16:12.668Z,69.30
2018-03-14T09:18:40.910Z,68.80
2018-03-14T09:21:09.218Z,69.10
2018-03-14T09:23:37.457Z,69.30
2018-03-14T09:26:05.696Z,68.90
2018-03-14T09:28:33.933Z,68.40
2018-03-14T09:31:02.214Z,68.80
2018-03-14T09:33:30.449Z,68.70
2018-03-14T09:35:58.669Z,68.10
2018-03-14T09:38:27.054Z,68.00
2018-03-14T09:40:55.274Z,68.00
2018-03-14T09:43:23.513Z,68.40
2018-03-14T09:45:51.818Z,67.90
2018-03-14T09:48:20.348Z,67.50
2018-03-14T09:50:48.569Z,67.30
2018-03-14T09:53:16.797Z,67.90
2018-03-14T09:55:45.807Z,67.90
2018-03-14T09:58:14.020Z,67.90
2018-03-14T10:00:42.330Z,67.90
2018-03-14T10:03:10.530Z,67.30
2018-03-14T10:05:38.763Z,66.60
2018-03-14T10:08:06.981Z,65.50
2018-03-14T10:10:35.217Z,66.30
2018-03-14T10:13:03.545Z,67.00
2018-03-14T10:15:31.805Z,67.00
2018-03-14T10:17:59.994Z,67.30
2018-03-14T10:20:28.242Z,65.80
2018-03-14T10:22:56.464Z,65.60
2018-03-14T10:25:24.753Z,65.90
2018-03-14T10:27:52.993Z,66.40
2018-03-14T10:30:21.265Z,66.00
2018-03-14T10:32:50.260Z,65.80
2018-03-14T10:35:19.291Z,65.50
2018-03-14T10:37:48.229Z,65.50
2018-03-14T10:40:17.245Z,65.20
2018-03-14T10:42:45.525Z,65.10
2018-03-14T10:45:13.729Z,65.10
2018-03-14T10:47:41.978Z,65.50
2018-03-14T10:50:10.187Z,66.20
2018-03-14T10:52:38.451Z,67.20
2018-03-14T10:55:06.682Z,66.20
2018-03-14T10:57:35.655Z,66.20
2018-03-14T11:00:03.970Z,66.10
2018-03-14T11:02:32.231Z,66.20
2018-03-14T11:05:01.941Z,65.50
2018-03-14T11:07:30.963Z,65.50
2018-03-14T11:09:59.204Z,65.50
2018-03-14T11:12:28.184Z,65.30
2018-03-14T11:14:57.178Z,66.00
2018-03-14T11:17:25.406Z,66.00
2018-03-14T11:19:53.625Z,66.10
2018-03-14T11:22:21.852Z,65.80
2018-03-14T11:24:50.121Z,66.50
2018-03-14T11:27:18.362Z,66.70
2018-03-14T11:29:46.601Z,67.20
2018-03-14T11:32:14.942Z,67.30
2018-03-14T11:34:43.190Z,67.60
2018-03-14T11:37:11.435Z,67.30
2018-03-14T11:39:39.646Z,67.60
2018-03-14T11:42:07.946Z,67.00
2018-03-14T11:44:36.183Z,66.80
2018-03-14T11:47:04.504Z,66.90
2018-03-14T11:49:32.736Z,66.30
2018-03-14T11:52:00.936Z,66.30
2018-03-14T11:54:29.955Z,66.00
2018-03-14T11:56:58.165Z,66.00
2018-03-14T11:59:26.409Z,66.30
2018-03-14T12:01:54.612Z,66.90
2018-03-14T12:04:22.861Z,65.80
2018-03-14T12:06:51.092Z,64.90
2018-03-14T12:09:19.310Z,66.00
2018-03-14T12:11:47.556Z,66.10
2018-03-14T12:14:15.775Z,65.90
2018-03-14T12:16:44.011Z,65.70
2018-03-14T12:19:12.986Z,65.90
2018-03-14T12:21:42.748Z,66.30
2018-03-14T12:24:11.027Z,66.30
2018-03-14T12:26:39.260Z,65.90
2018-03-14T12:29:08.292Z,66.30
2018-03-14T12:31:36.524Z,66.20
2018-03-14T12:34:04.742Z,65.90
2018-03-14T12:36:32.988Z,65.10
2018-03-14T12:39:01.970Z,65.70
2018-03-14T12:41:30.290Z,65.60
2018-03-14T12:43:58.540Z,65.60
2018-03-14T12:46:27.529Z,65.80
2018-03-14T12:48:56.536Z,65.20
2018-03-14T12:51:24.754Z,65.10
2018-03-14T12:53:53.105Z,64.80
2018-03-14T12:56:21.336Z,64.40
2018-03-14T12:58:49.569Z,63.80
2018-03-14T13:01:17.790Z,64.50
2018-03-14T13:03:46.032Z,64.40
2018-03-14T13:06:14.249Z,64.20
2018-03-14T13:08:43.268Z,64.40
2018-03-14T13:11:11.549Z,64.40
2018-03-14T13:13:39.780Z,64.70
2018-03-14T13:16:08.008Z,64.50
2018-03-14T13:18:36.224Z,64.30
2018-03-14T13:21:04.462Z,63.60
2018-03-14T13:23:36.090Z,62.80
2018-03-14T13:26:05.147Z,63.10
2018-03-14T13:28:33.367Z,63.10
2018-03-14T13:31:01.600Z,62.70
2018-03-14T13:33:29.875Z,63.00
2018-03-14T13:35:58.095Z,63.40
2018-03-14T13:38:26.378Z,63.50
2018-03-14T13:40:54.655Z,64.50
2018-03-14T13:43:22.911Z,64.40
2018-03-14T13:45:51.918Z,65.90
2018-03-14T13:48:20.892Z,63.60
2018-03-14T13:50:49.912Z,63.20
2018-03-14T13:53:18.142Z,63.10
2018-03-14T13:55:46.362Z,62.60
2018-03-14T13:58:14.575Z,63.00
2018-03-14T14:00:42.821Z,61.90
2018-03-14T14:03:11.053Z,61.20
2018-03-14T14:05:39.285Z,61.60
2018-03-14T14:08:07.546Z,61.30
2018-03-14T14:10:35.818Z,60.50
2018-03-14T14:13:04.060Z,60.00
2018-03-14T14:15:32.369Z,59.60
2018-03-14T14:18:00.660Z,59.50
2018-03-14T14:20:28.913Z,59.40
2018-03-14T14:22:57.901Z,60.30
2018-03-14T14:25:26.913Z,61.10
2018-03-14T14:27:55.190Z,61.00
2018-03-14T14:30:23.444Z,60.20
2018-03-14T14:32:51.715Z,61.10
2018-03-14T14:35:19.917Z,60.70
2018-03-14T14:37:48.151Z,60.90
2018-03-14T14:40:16.379Z,59.80
2018-03-14T14:42:44.637Z,60.00
2018-03-14T14:45:13.606Z,60.90
2018-03-14T14:47:41.865Z,60.80
2018-03-14T14:50:10.076Z,61.10
2018-03-14T14:52:39.092Z,61.30
2018-03-14T14:55:07.359Z,61.30
2018-03-14T14:57:35.612Z,61.50
2018-03-14T15:00:03.820Z,60.90
2018-03-14T15:02:32.065Z,60.00
2018-03-14T15:05:00.284Z,60.60
2018-03-14T15:07:28.521Z,60.80
2018-03-14T15:09:57.519Z,60.20
2018-03-14T15:12:26.495Z,60.00
2018-03-14T15:14:54.756Z,60.00
2018-03-14T15:17:23.007Z,59.90
2018-03-14T15:19:51.175Z,60.40
2018-03-14T15:22:19.409Z,60.20
2018-03-14T15:24:48.405Z,60.20
2018-03-14T15:27:16.644Z,60.20
2018-03-14T15:29:44.870Z,60.60
2018-03-14T15:32:13.842Z,59.90
2018-03-14T15:34:42.147Z,59.90
2018-03-14T15:37:10.350Z,59.60
2018-03-14T15:39:38.691Z,60.70
2018-03-14T15:42:06.927Z,60.90
2018-03-14T15:44:36.668Z,60.70
2018-03-14T15:47:05.679Z,60.60
2018-03-14T15:49:33.940Z,60.40
2018-03-14T15:52:02.938Z,60.60
2018-03-14T15:54:31.906Z,60.70
2018-03-14T15:57:00.122Z,60.70
2018-03-14T15:59:28.364Z,60.20
2018-03-14T16:01:56.603Z,61.30
2018-03-14T16:04:24.968Z,60.70
2018-03-14T16:06:53.184Z,60.60
2018-03-14T16:09:21.430Z,61.30
2018-03-14T16:11:49.649Z,61.00
2018-03-14T16:14:18.663Z,61.50
2018-03-14T16:16:46.953Z,61.40
2018-03-14T16:19:15.204Z,61.40
2018-03-14T16:21:44.195Z,61.60
2018-03-14T16:24:13.186Z,61.50
2018-03-14T16:26:42.180Z,61.70
2018-03-14T16:29:11.259Z,61.70
2018-03-14T16:31:39.457Z,61.60
2018-03-14T16:34:08.447Z,61.60
2018-03-14T16:36:37.458Z,62.10
2018-03-14T16:39:05.662Z,62.10
2018-03-14T16:41:33.863Z,62.20
2018-03-14T16:44:02.260Z,62.30
2018-03-14T16:46:30.464Z,63.20
2018-03-14T16:48:58.726Z,63.70
2018-03-14T16:51:27.829Z,63.70
2018-03-14T16:53:56.073Z,63.60
2018-03-14T16:56:24.273Z,63.70
2018-03-14T16:58:53.249Z,64.20
2018-03-14T17:01:21.484Z,64.10
2018-03-14T17:03:49.710Z,64.40
2018-03-14T17:06:18.727Z,64.80
2018-03-14T17:08:46.998Z,64.60
2018-03-14T17:11:15.235Z,64.30
2018-03-14T17:13:43.443Z,64.20
2018-03-14T17:16:12.438Z,65.10
2018-03-14T17:18:40.656Z,65.00
2018-03-14T17:21:08.900Z,65.10
2018-03-14T17:23:37.168Z,64.80
2018-03-14T17:26:05.435Z,64.40
2018-03-14T17:28:34.432Z,64.80
2018-03-14T17:31:03.453Z,64.90
2018-03-14T17:33:31.718Z,64.80
2018-03-14T17:36:00.014Z,64.80
2018-03-14T17:38:28.271Z,64.90
2018-03-14T17:40:57.249Z,64.40
2018-03-14T17:43:26.255Z,65.00
2018-03-14T17:45:54.496Z,65.00
2018-03-14T17:48:22.716Z,65.10
2018-03-14T17:50:50.953Z,64.80
2018-03-14T17:53:19.938Z,65.10
2018-03-14T17:55:48.212Z,65.00
2018-03-14T17:58:16.405Z,64.80
2018-03-14T18:00:45.409Z,65.20
2018-03-14T18:03:13.651Z,65.20
2018-03-14T18:05:41.982Z,64.90
2018-03-14T18:08:10.194Z,64.80
2018-03-14T18:10:38.411Z,64.30
2018-03-14T18:13:07.408Z,64.00
2018-03-14T18:15:35.624Z,63.90
2018-03-14T18:18:03.890Z,63.80
2018-03-14T18:20:32.120Z,64.60
2018-03-14T18:23:01.125Z,64.90
2018-03-14T18:25:29.413Z,64.80
2018-03-14T18:27:57.680Z,64.90
2018-03-14T18:30:25.905Z,64.80
2018-03-14T18:32:54.145Z,64.80
2018-03-14T18:35:22.364Z,64.80
2018-03-14T18:37:50.699Z,64.60
2018-03-14T18:40:18.938Z,64.30
2018-03-14T18:42:47.257Z,64.30
2018-03-14T18:45:15.502Z,64.40
2018-03-14T18:47:44.517Z,64.40
2018-03-14T18:50:12.764Z,64.40
2018-03-14T18:52:41.748Z,65.10
2018-03-14T18:55:09.985Z,64.40
2018-03-14T18:57:38.201Z,64.30
2018-03-14T19:00:06.433Z,64.80
2018-03-14T19:02:34.676Z,65.60
2018-03-14T19:05:03.664Z,65.30
2018-03-14T19:07:32.673Z,65.30
2018-03-14T19:10:00.916Z,65.20
2018-03-14T19:12:29.227Z,65.20
2018-03-14T19:14:57.490Z,65.10
2018-03-14T19:17:26.469Z,65.20
2018-03-14T19:19:54.697Z,65.90
2018-03-14T19:22:22.953Z,66.70
2018-03-14T19:24:51.167Z,65.90
2018-03-14T19:27:19.398Z,65.60
2018-03-14T19:29:47.679Z,65.30
2018-03-14T19:32:15.913Z,65.10
2018-03-14T19:34:44.125Z,65.80
2018-03-14T19:37:12.372Z,64.80
2018-03-14T19:39:40.594Z,65.20
2018-03-14T19:42:08.805Z,65.10
2018-03-14T19:44:37.041Z,65.10
2018-03-14T19:47:05.291Z,64.70
2018-03-14T19:49:34.273Z,64.90
2018-03-14T19:52:02.533Z,64.80
2018-03-14T19:54:30.958Z,64.80
2018-03-14T19:56:59.161Z,64.40
2018-03-14T19:59:27.376Z,64.80
2018-03-14T20:01:55.612Z,64.80
2018-03-14T20:04:23.852Z,64.60
2018-03-14T20:06:52.829Z,64.10
2018-03-14T20:09:21.836Z,64.40
2018-03-14T20:11:50.833Z,63.80
2018-03-14T20:14:19.839Z,63.80
2018-03-14T20:16:48.120Z,63.70
2018-03-14T20:19:16.338Z,63.60
2018-03-14T20:21:44.661Z,63.40
2018-03-14T20:24:12.901Z,63.60
2018-03-14T20:26:41.137Z,63.70
2018-03-14T20:29:09.341Z,63.70
2018-03-14T20:31:37.601Z,63.50
2018-03-14T20:34:05.819Z,63.50
2018-03-14T20:36:34.793Z,63.80
2018-03-14T20:39:03.039Z,63.80
2018-03-14T20:41:31.261Z,63.60
2018-03-14T20:43:59.461Z,63.20
2018-03-14T20:46:27.742Z,63.70
2018-03-14T20:48:56.025Z,63.20
2018-03-14T20:51:24.233Z,63.30
2018-03-14T20:53:52.459Z,63.50
2018-03-14T20:56:21.458Z,63.50
2018-03-14T20:58:49.678Z,63.50
2018-03-14T21:01:17.910Z,63.50
2018-03-14T21:03:46.300Z,63.40
2018-03-14T21:06:14.538Z,63.10
2018-03-14T21:08:42.852Z,63.00
2018-03-14T21:11:11.065Z,63.70
2018-03-14T21:13:39.353Z,62.80
2018-03-14T21:16:07.692Z,63.10
2018-03-14T21:18:35.924Z,63.10
2018-03-14T21:21:04.217Z,63.20
2018-03-14T21:23:33.204Z,63.70
2018-03-14T21:26:02.243Z,63.40
2018-03-14T21:28:30.446Z,63.30
2018-03-14T21:30:58.671Z,62.60
2018-03-14T21:33:26.909Z,62.90
2018-03-14T21:35:55.173Z,63.00
2018-03-14T21:38:23.639Z,62.80
2018-03-14T21:40:51.875Z,63.40
2018-03-14T21:43:20.143Z,62.70
2018-03-14T21:45:51.772Z,63.30
2018-03-14T21:48:20.011Z,63.20
2018-03-14T21:50:48.237Z,63.10
2018-03-14T21:53:17.235Z,63.10
2018-03-14T21:55:46.228Z,63.00
2018-03-14T21:58:15.219Z,63.00
2018-03-14T22:00:44.240Z,62.80
2018-03-14T22:03:12.486Z,62.70
2018-03-14T22:05:40.803Z,62.80
2018-03-14T22:08:09.029Z,62.50
2018-03-14T22:10:37.279Z,62.80
2018-03-14T22:13:05.526Z,63.50
2018-03-14T22:15:33.827Z,62.40
2018-03-14T22:18:02.082Z,62.30
2018-03-14T22:20:31.047Z,62.70
2018-03-14T22:23:00.067Z,62.60
2018-03-14T22:25:28.288Z,62.50
2018-03-14T22:27:56.526Z,62.50
2018-03-14T22:30:24.780Z,62.70
2018-03-14T22:32:52.994Z,62.50
2018-03-14T22:35:21.227Z,62.40
2018-03-14T22:37:50.223Z,62.30
2018-03-14T22:40:18.503Z,62.30
2018-03-14T22:42:46.787Z,62.10
2018-03-14T22:45:15.024Z,62.20
2018-03-14T22:47:43.270Z,62.40
2018-03-14T22:50:11.507Z,62.20
2018-03-14T22:52:39.774Z,62.30
2018-03-14T22:55:08.054Z,62.10
2018-03-14T22:57:36.275Z,62.40
2018-03-14T23:00:04.618Z,62.30
2018-03-14T23:02:32.869Z,62.20
2018-03-14T23:05:01.855Z,62.20
2018-03-14T23:07:30.135Z,62.10
2018-03-14T23:09:58.299Z,62.10
2018-03-14T23:12:26.527Z,62.40
2018-03-14T23:14:54.776Z,62.60
2018-03-14T23:17:23.776Z,62.60
2018-03-14T23:19:52.016Z,62.50
2018-03-14T23:22:20.324Z,62.50
2018-03-14T23:24:48.616Z,62.40
2018-03-14T23:27:16.881Z,62.50
2018-03-14T23:29:45.102Z,62.40
2018-03-14T23:32:13.333Z,62.40
2018-03-14T23:34:41.610Z,62.50
2018-03-14T23:37:09.899Z,62.70
2018-03-14T23:39:38.121Z,62.80
2018-03-14T23:42:06.376Z,62.70
2018-03-14T23:44:34.638Z,62.30
2018-03-14T23:47:02.840Z,62.30
2018-03-14T23:49:31.080Z,62.40
2018-03-14T23:51:59.293Z,62.40
2018-03-14T23:54:27.537Z,62.50
2018-03-14T23:56:55.794Z,62.70
2018-03-14T23:59:24.029Z,62.80
